sensor_id;sensor_type;location;lat;lon;timestamp;temperature;humidity
18103;DHT22;9178;51.120;6.192;2023-05-07T00:02:23;14.20;99.90
18103;DHT22;9178;51.120;6.192;2023-05-07T00:04:50;14.20;99.90
18103;DHT22;9178;51.120;6.192;2023-05-07T00:07:18;14.20;99.90
18103;DHT22;9178;51.120;6.192;2023-05-07T00:09:45;14.20;99.90
18103;DHT22;9178;51.120;6.192;2023-05-07T00:12:12;14.20;99.90
18103;DHT22;9178;51.120;6.192;2023-05-07T00:14:39;14.20;99.90
18103;DHT22;9178;51.120;6.192;2023-05-07T00:17:05;14.10;99.90
18103;DHT22;9178;51.120;6.192;2023-05-07T00:19:33;14.10;99.90
18103;DHT22;9178;51.120;6.192;2023-05-07T00:22:00;14.10;99.90
18103;DHT22;9178;51.120;6.192;2023-05-07T00:24:28;14.10;99.90
18103;DHT22;9178;51.120;6.192;2023-05-07T00:26:55;14.10;99.90
18103;DHT22;9178;51.120;6.192;2023-05-07T00:29:23;14.10;99.90
18103;DHT22;9178;51.120;6.192;2023-05-07T00:31:50;14.10;99.90
18103;DHT22;9178;51.120;6.192;2023-05-07T00:34:19;14.10;99.90
18103;DHT22;9178;51.120;6.192;2023-05-07T00:36:46;14.10;99.90
18103;DHT22;9178;51.120;6.192;2023-05-07T00:39:12;14.10;99.90
18103;DHT22;9178;51.120;6.192;2023-05-07T00:41:40;14.00;99.90
18103;DHT22;9178;51.120;6.192;2023-05-07T00:44:07;14.00;99.90
18103;DHT22;9178;51.120;6.192;2023-05-07T00:46:34;14.00;99.90
18103;DHT22;9178;51.120;6.192;2023-05-07T00:49:01;14.00;99.90
18103;DHT22;9178;51.120;6.192;2023-05-07T00:51:29;14.10;99.90
18103;DHT22;9178;51.120;6.192;2023-05-07T00:53:56;14.10;99.90
18103;DHT22;9178;51.120;6.192;2023-05-07T00:56:23;14.10;99.90
18103;DHT22;9178;51.120;6.192;2023-05-07T00:58:52;14.10;99.90
18103;DHT22;9178;51.120;6.192;2023-05-07T01:01:19;14.10;99.90
18103;DHT22;9178;51.120;6.192;2023-05-07T01:03:46;14.10;99.90
18103;DHT22;9178;51.120;6.192;2023-05-07T01:06:13;14.00;99.90
18103;DHT22;9178;51.120;6.192;2023-05-07T01:08:42;14.10;99.90
18103;DHT22;9178;51.120;6.192;2023-05-07T01:11:10;14.10;99.90
18103;DHT22;9178;51.120;6.192;2023-05-07T01:13:38;14.10;99.90
18103;DHT22;9178;51.120;6.192;2023-05-07T01:16:08;14.10;99.90
18103;DHT22;9178;51.120;6.192;2023-05-07T01:18:35;14.00;99.90
18103;DHT22;9178;51.120;6.192;2023-05-07T01:21:04;14.00;99.90
18103;DHT22;9178;51.120;6.192;2023-05-07T01:23:33;14.00;99.90
18103;DHT22;9178;51.120;6.192;2023-05-07T01:26:01;14.00;99.90
18103;DHT22;9178;51.120;6.192;2023-05-07T01:28:27;14.00;99.90
18103;DHT22;9178;51.120;6.192;2023-05-07T01:30:57;14.00;99.90
18103;DHT22;9178;51.120;6.192;2023-05-07T01:33:27;14.00;99.90
18103;DHT22;9178;51.120;6.192;2023-05-07T01:35:57;14.00;99.90
18103;DHT22;9178;51.120;6.192;2023-05-07T01:38:26;14.00;99.90
18103;DHT22;9178;51.120;6.192;2023-05-07T01:40:55;14.00;99.90
18103;DHT22;9178;51.120;6.192;2023-05-07T01:43:22;13.90;99.90
18103;DHT22;9178;51.120;6.192;2023-05-07T01:45:49;13.90;99.90
18103;DHT22;9178;51.120;6.192;2023-05-07T01:48:17;13.90;99.90
18103;DHT22;9178;51.120;6.192;2023-05-07T01:50:44;13.90;99.90
18103;DHT22;9178;51.120;6.192;2023-05-07T01:53:11;13.90;99.90
18103;DHT22;9178;51.120;6.192;2023-05-07T01:55:38;13.90;99.90
18103;DHT22;9178;51.120;6.192;2023-05-07T01:58:06;13.90;99.90
18103;DHT22;9178;51.120;6.192;2023-05-07T02:00:33;13.90;99.90
18103;DHT22;9178;51.120;6.192;2023-05-07T02:03:00;13.90;99.90
18103;DHT22;9178;51.120;6.192;2023-05-07T02:05:27;13.80;99.90
18103;DHT22;9178;51.120;6.192;2023-05-07T02:07:54;13.80;99.90
18103;DHT22;9178;51.120;6.192;2023-05-07T02:10:21;13.80;99.90
18103;DHT22;9178;51.120;6.192;2023-05-07T02:12:47;13.80;99.90
18103;DHT22;9178;51.120;6.192;2023-05-07T02:15:16;13.80;99.90
18103;DHT22;9178;51.120;6.192;2023-05-07T02:17:58;13.80;99.90
18103;DHT22;9178;51.120;6.192;2023-05-07T02:20:25;13.70;99.90
18103;DHT22;9178;51.120;6.192;2023-05-07T02:22:52;13.70;99.90
18103;DHT22;9178;51.120;6.192;2023-05-07T02:25:18;13.70;99.90
18103;DHT22;9178;51.120;6.192;2023-05-07T02:27:45;13.70;99.90
18103;DHT22;9178;51.120;6.192;2023-05-07T02:30:13;13.60;99.90
18103;DHT22;9178;51.120;6.192;2023-05-07T02:32:41;13.60;99.90
18103;DHT22;9178;51.120;6.192;2023-05-07T02:35:08;13.60;99.90
18103;DHT22;9178;51.120;6.192;2023-05-07T02:37:35;13.60;99.90
18103;DHT22;9178;51.120;6.192;2023-05-07T02:40:01;13.50;99.90
18103;DHT22;9178;51.120;6.192;2023-05-07T02:42:29;13.50;99.90
18103;DHT22;9178;51.120;6.192;2023-05-07T02:44:56;13.50;99.90
18103;DHT22;9178;51.120;6.192;2023-05-07T02:47:23;13.50;99.90
18103;DHT22;9178;51.120;6.192;2023-05-07T02:49:53;13.50;99.90
18103;DHT22;9178;51.120;6.192;2023-05-07T02:52:20;13.50;99.90
18103;DHT22;9178;51.120;6.192;2023-05-07T02:54:47;13.50;99.90
18103;DHT22;9178;51.120;6.192;2023-05-07T02:57:14;13.50;99.90
18103;DHT22;9178;51.120;6.192;2023-05-07T02:59:41;13.40;99.90
18103;DHT22;9178;51.120;6.192;2023-05-07T03:02:08;13.40;99.90
18103;DHT22;9178;51.120;6.192;2023-05-07T03:04:35;13.50;99.90
18103;DHT22;9178;51.120;6.192;2023-05-07T03:07:03;13.40;99.90
18103;DHT22;9178;51.120;6.192;2023-05-07T03:09:32;13.50;99.90
18103;DHT22;9178;51.120;6.192;2023-05-07T03:11:59;13.50;99.90
18103;DHT22;9178;51.120;6.192;2023-05-07T03:14:27;13.50;99.90
18103;DHT22;9178;51.120;6.192;2023-05-07T03:16:53;13.50;99.90
18103;DHT22;9178;51.120;6.192;2023-05-07T03:19:20;13.50;99.90
18103;DHT22;9178;51.120;6.192;2023-05-07T03:21:47;13.50;99.90
18103;DHT22;9178;51.120;6.192;2023-05-07T03:24:15;13.40;99.90
18103;DHT22;9178;51.120;6.192;2023-05-07T03:26:42;13.40;99.90
18103;DHT22;9178;51.120;6.192;2023-05-07T03:29:08;13.40;99.90
18103;DHT22;9178;51.120;6.192;2023-05-07T03:31:35;13.40;99.90
18103;DHT22;9178;51.120;6.192;2023-05-07T03:34:02;13.40;99.90
18103;DHT22;9178;51.120;6.192;2023-05-07T03:36:29;13.40;99.90
18103;DHT22;9178;51.120;6.192;2023-05-07T03:38:56;13.30;99.90
18103;DHT22;9178;51.120;6.192;2023-05-07T03:41:24;13.40;99.90
18103;DHT22;9178;51.120;6.192;2023-05-07T03:43:51;13.30;99.90
18103;DHT22;9178;51.120;6.192;2023-05-07T03:46:17;13.30;99.90
18103;DHT22;9178;51.120;6.192;2023-05-07T03:48:44;13.30;99.90
18103;DHT22;9178;51.120;6.192;2023-05-07T03:51:11;13.30;99.90
18103;DHT22;9178;51.120;6.192;2023-05-07T03:53:37;13.30;99.90
18103;DHT22;9178;51.120;6.192;2023-05-07T03:56:04;13.30;99.90
18103;DHT22;9178;51.120;6.192;2023-05-07T03:58:32;13.30;99.90
18103;DHT22;9178;51.120;6.192;2023-05-07T04:01:00;13.30;99.90
18103;DHT22;9178;51.120;6.192;2023-05-07T04:03:27;13.30;99.90
18103;DHT22;9178;51.120;6.192;2023-05-07T04:05:53;13.30;99.90
18103;DHT22;9178;51.120;6.192;2023-05-07T04:08:20;13.30;99.90
18103;DHT22;9178;51.120;6.192;2023-05-07T04:10:47;13.30;99.90
18103;DHT22;9178;51.120;6.192;2023-05-07T04:13:14;13.30;99.90
18103;DHT22;9178;51.120;6.192;2023-05-07T04:15:42;13.30;99.90
18103;DHT22;9178;51.120;6.192;2023-05-07T04:18:09;13.30;99.90
18103;DHT22;9178;51.120;6.192;2023-05-07T04:20:35;13.30;99.90
18103;DHT22;9178;51.120;6.192;2023-05-07T04:23:02;13.30;99.90
18103;DHT22;9178;51.120;6.192;2023-05-07T04:25:29;13.30;99.90
18103;DHT22;9178;51.120;6.192;2023-05-07T04:27:56;13.30;99.90
18103;DHT22;9178;51.120;6.192;2023-05-07T04:30:23;13.30;99.90
18103;DHT22;9178;51.120;6.192;2023-05-07T04:32:51;13.30;99.90
18103;DHT22;9178;51.120;6.192;2023-05-07T04:35:18;13.30;99.90
18103;DHT22;9178;51.120;6.192;2023-05-07T04:37:45;13.30;99.90
18103;DHT22;9178;51.120;6.192;2023-05-07T04:40:12;13.30;99.90
18103;DHT22;9178;51.120;6.192;2023-05-07T04:42:39;13.30;99.90
18103;DHT22;9178;51.120;6.192;2023-05-07T04:45:06;13.40;99.90
18103;DHT22;9178;51.120;6.192;2023-05-07T04:47:34;13.30;99.90
18103;DHT22;9178;51.120;6.192;2023-05-07T04:50:02;13.30;99.90
18103;DHT22;9178;51.120;6.192;2023-05-07T04:52:29;13.30;99.90
18103;DHT22;9178;51.120;6.192;2023-05-07T04:54:58;13.30;99.90
18103;DHT22;9178;51.120;6.192;2023-05-07T04:57:25;13.30;99.90
18103;DHT22;9178;51.120;6.192;2023-05-07T04:59:52;13.40;99.90
18103;DHT22;9178;51.120;6.192;2023-05-07T05:02:19;13.40;99.90
18103;DHT22;9178;51.120;6.192;2023-05-07T05:04:46;13.40;99.90
18103;DHT22;9178;51.120;6.192;2023-05-07T05:07:14;13.40;99.90
18103;DHT22;9178;51.120;6.192;2023-05-07T05:09:41;13.40;99.90
18103;DHT22;9178;51.120;6.192;2023-05-07T05:12:08;13.50;99.90
18103;DHT22;9178;51.120;6.192;2023-05-07T05:14:34;13.50;99.90
18103;DHT22;9178;51.120;6.192;2023-05-07T05:17:01;13.50;99.90
18103;DHT22;9178;51.120;6.192;2023-05-07T05:19:28;13.50;99.90
18103;DHT22;9178;51.120;6.192;2023-05-07T05:21:54;13.60;99.90
18103;DHT22;9178;51.120;6.192;2023-05-07T05:24:22;13.60;99.90
18103;DHT22;9178;51.120;6.192;2023-05-07T05:26:49;13.60;99.90
18103;DHT22;9178;51.120;6.192;2023-05-07T05:29:16;13.60;99.90
18103;DHT22;9178;51.120;6.192;2023-05-07T05:31:42;13.60;99.90
18103;DHT22;9178;51.120;6.192;2023-05-07T05:34:09;13.60;99.90
18103;DHT22;9178;51.120;6.192;2023-05-07T05:36:36;13.70;99.90
18103;DHT22;9178;51.120;6.192;2023-05-07T05:39:04;13.70;99.90
18103;DHT22;9178;51.120;6.192;2023-05-07T05:41:32;13.70;99.90
18103;DHT22;9178;51.120;6.192;2023-05-07T05:43:59;13.70;99.90
18103;DHT22;9178;51.120;6.192;2023-05-07T05:46:26;13.70;99.90
18103;DHT22;9178;51.120;6.192;2023-05-07T05:48:53;13.80;99.90
18103;DHT22;9178;51.120;6.192;2023-05-07T05:51:20;13.80;99.90
18103;DHT22;9178;51.120;6.192;2023-05-07T05:53:47;13.90;99.90
18103;DHT22;9178;51.120;6.192;2023-05-07T05:56:14;14.00;99.90
18103;DHT22;9178;51.120;6.192;2023-05-07T05:58:43;14.00;99.90
18103;DHT22;9178;51.120;6.192;2023-05-07T06:01:09;14.10;99.90
18103;DHT22;9178;51.120;6.192;2023-05-07T06:03:37;14.20;99.90
18103;DHT22;9178;51.120;6.192;2023-05-07T06:06:04;14.30;99.90
18103;DHT22;9178;51.120;6.192;2023-05-07T06:08:31;14.50;99.90
18103;DHT22;9178;51.120;6.192;2023-05-07T06:10:58;14.50;99.90
18103;DHT22;9178;51.120;6.192;2023-05-07T06:13:25;14.70;99.90
18103;DHT22;9178;51.120;6.192;2023-05-07T06:15:53;14.80;99.90
18103;DHT22;9178;51.120;6.192;2023-05-07T06:18:20;14.90;99.90
18103;DHT22;9178;51.120;6.192;2023-05-07T06:20:47;15.00;99.90
18103;DHT22;9178;51.120;6.192;2023-05-07T06:23:14;15.20;99.90
18103;DHT22;9178;51.120;6.192;2023-05-07T06:25:41;15.30;99.90
18103;DHT22;9178;51.120;6.192;2023-05-07T06:28:07;15.50;99.90
18103;DHT22;9178;51.120;6.192;2023-05-07T06:30:36;15.60;99.90
18103;DHT22;9178;51.120;6.192;2023-05-07T06:33:04;15.70;99.90
18103;DHT22;9178;51.120;6.192;2023-05-07T06:35:31;15.70;99.90
18103;DHT22;9178;51.120;6.192;2023-05-07T06:37:58;15.80;99.90
18103;DHT22;9178;51.120;6.192;2023-05-07T06:40:25;15.80;99.90
18103;DHT22;9178;51.120;6.192;2023-05-07T06:42:52;15.80;99.90
18103;DHT22;9178;51.120;6.192;2023-05-07T06:45:19;15.90;99.90
18103;DHT22;9178;51.120;6.192;2023-05-07T06:47:46;16.00;99.90
18103;DHT22;9178;51.120;6.192;2023-05-07T06:50:14;16.10;99.90
18103;DHT22;9178;51.120;6.192;2023-05-07T06:52:42;16.10;99.90
18103;DHT22;9178;51.120;6.192;2023-05-07T06:55:09;16.20;99.90
18103;DHT22;9178;51.120;6.192;2023-05-07T06:57:37;16.30;99.90
18103;DHT22;9178;51.120;6.192;2023-05-07T07:00:06;16.30;99.90
18103;DHT22;9178;51.120;6.192;2023-05-07T07:02:34;16.40;99.90
18103;DHT22;9178;51.120;6.192;2023-05-07T07:05:01;16.50;99.90
18103;DHT22;9178;51.120;6.192;2023-05-07T07:07:29;16.60;99.90
18103;DHT22;9178;51.120;6.192;2023-05-07T07:09:55;16.70;99.90
18103;DHT22;9178;51.120;6.192;2023-05-07T07:12:22;16.80;99.90
18103;DHT22;9178;51.120;6.192;2023-05-07T07:14:51;16.90;99.90
18103;DHT22;9178;51.120;6.192;2023-05-07T07:17:18;17.00;99.90
18103;DHT22;9178;51.120;6.192;2023-05-07T07:19:44;17.10;99.90
18103;DHT22;9178;51.120;6.192;2023-05-07T07:22:11;17.20;99.90
18103;DHT22;9178;51.120;6.192;2023-05-07T07:24:39;17.20;99.90
18103;DHT22;9178;51.120;6.192;2023-05-07T07:27:06;17.30;99.90
18103;DHT22;9178;51.120;6.192;2023-05-07T07:29:33;17.40;99.90
18103;DHT22;9178;51.120;6.192;2023-05-07T07:31:59;17.60;99.90
18103;DHT22;9178;51.120;6.192;2023-05-07T07:34:26;17.70;99.90
18103;DHT22;9178;51.120;6.192;2023-05-07T07:36:53;17.90;99.90
18103;DHT22;9178;51.120;6.192;2023-05-07T07:39:20;18.00;99.90
18103;DHT22;9178;51.120;6.192;2023-05-07T07:41:48;18.10;99.90
18103;DHT22;9178;51.120;6.192;2023-05-07T07:44:15;18.20;99.90
18103;DHT22;9178;51.120;6.192;2023-05-07T07:46:42;18.40;99.90
18103;DHT22;9178;51.120;6.192;2023-05-07T07:49:09;18.50;99.90
18103;DHT22;9178;51.120;6.192;2023-05-07T07:51:36;18.60;99.90
18103;DHT22;9178;51.120;6.192;2023-05-07T07:54:03;18.70;99.90
18103;DHT22;9178;51.120;6.192;2023-05-07T07:56:30;18.60;99.90
18103;DHT22;9178;51.120;6.192;2023-05-07T07:58:58;18.70;99.90
18103;DHT22;9178;51.120;6.192;2023-05-07T08:01:24;18.80;99.90
18103;DHT22;9178;51.120;6.192;2023-05-07T08:03:51;19.00;99.90
18103;DHT22;9178;51.120;6.192;2023-05-07T08:06:18;19.10;99.90
18103;DHT22;9178;51.120;6.192;2023-05-07T08:08:45;19.00;99.90
18103;DHT22;9178;51.120;6.192;2023-05-07T08:11:11;19.00;99.90
18103;DHT22;9178;51.120;6.192;2023-05-07T08:13:38;19.00;99.90
18103;DHT22;9178;51.120;6.192;2023-05-07T08:16:07;19.00;99.90
18103;DHT22;9178;51.120;6.192;2023-05-07T08:18:33;19.00;99.90
18103;DHT22;9178;51.120;6.192;2023-05-07T08:21:00;19.10;99.90
18103;DHT22;9178;51.120;6.192;2023-05-07T08:23:27;19.20;99.90
18103;DHT22;9178;51.120;6.192;2023-05-07T08:25:54;19.40;99.90
18103;DHT22;9178;51.120;6.192;2023-05-07T08:28:21;19.60;99.90
18103;DHT22;9178;51.120;6.192;2023-05-07T08:30:50;19.60;99.90
18103;DHT22;9178;51.120;6.192;2023-05-07T08:33:18;19.70;99.90
18103;DHT22;9178;51.120;6.192;2023-05-07T08:35:45;20.10;99.90
18103;DHT22;9178;51.120;6.192;2023-05-07T08:38:12;20.40;99.90
18103;DHT22;9178;51.120;6.192;2023-05-07T08:40:39;20.70;99.90
18103;DHT22;9178;51.120;6.192;2023-05-07T08:43:07;21.00;99.90
18103;DHT22;9178;51.120;6.192;2023-05-07T08:45:34;21.30;99.90
18103;DHT22;9178;51.120;6.192;2023-05-07T08:48:03;21.60;99.90
18103;DHT22;9178;51.120;6.192;2023-05-07T08:50:35;21.80;99.90
18103;DHT22;9178;51.120;6.192;2023-05-07T08:53:02;22.00;99.90
18103;DHT22;9178;51.120;6.192;2023-05-07T08:55:29;22.10;99.90
18103;DHT22;9178;51.120;6.192;2023-05-07T08:57:56;22.00;99.90
18103;DHT22;9178;51.120;6.192;2023-05-07T09:00:24;22.00;99.90
18103;DHT22;9178;51.120;6.192;2023-05-07T09:02:52;22.00;99.90
18103;DHT22;9178;51.120;6.192;2023-05-07T09:05:19;22.00;99.90
18103;DHT22;9178;51.120;6.192;2023-05-07T09:07:48;22.00;99.90
18103;DHT22;9178;51.120;6.192;2023-05-07T09:10:16;22.10;99.90
18103;DHT22;9178;51.120;6.192;2023-05-07T09:12:43;22.10;99.90
18103;DHT22;9178;51.120;6.192;2023-05-07T09:15:10;22.10;99.90
18103;DHT22;9178;51.120;6.192;2023-05-07T09:17:37;22.00;99.90
18103;DHT22;9178;51.120;6.192;2023-05-07T09:20:07;21.90;99.90
18103;DHT22;9178;51.120;6.192;2023-05-07T09:22:39;21.60;99.90
18103;DHT22;9178;51.120;6.192;2023-05-07T09:25:09;21.50;99.90
18103;DHT22;9178;51.120;6.192;2023-05-07T09:27:36;21.50;99.90
18103;DHT22;9178;51.120;6.192;2023-05-07T09:30:04;21.50;99.90
18103;DHT22;9178;51.120;6.192;2023-05-07T09:32:34;21.60;99.90
18103;DHT22;9178;51.120;6.192;2023-05-07T09:35:04;21.60;99.90
18103;DHT22;9178;51.120;6.192;2023-05-07T09:37:31;21.50;99.90
18103;DHT22;9178;51.120;6.192;2023-05-07T09:40:05;21.40;99.90
18103;DHT22;9178;51.120;6.192;2023-05-07T09:42:36;21.40;99.90
18103;DHT22;9178;51.120;6.192;2023-05-07T09:45:06;21.50;99.90
18103;DHT22;9178;51.120;6.192;2023-05-07T09:47:36;21.60;99.90
18103;DHT22;9178;51.120;6.192;2023-05-07T09:50:07;21.40;99.90
18103;DHT22;9178;51.120;6.192;2023-05-07T09:52:36;21.50;99.90
18103;DHT22;9178;51.120;6.192;2023-05-07T09:55:11;21.60;99.90
18103;DHT22;9178;51.120;6.192;2023-05-07T09:57:43;21.60;99.90
18103;DHT22;9178;51.120;6.192;2023-05-07T10:00:11;21.60;99.90
18103;DHT22;9178;51.120;6.192;2023-05-07T10:02:39;21.70;99.90
18103;DHT22;9178;51.120;6.192;2023-05-07T10:05:12;21.90;99.90
18103;DHT22;9178;51.120;6.192;2023-05-07T10:07:44;21.90;99.90
18103;DHT22;9178;51.120;6.192;2023-05-07T10:10:12;21.60;99.90
18103;DHT22;9178;51.120;6.192;2023-05-07T10:12:42;21.40;99.90
18103;DHT22;9178;51.120;6.192;2023-05-07T10:15:10;21.30;99.90
18103;DHT22;9178;51.120;6.192;2023-05-07T10:17:40;21.10;99.90
18103;DHT22;9178;51.120;6.192;2023-05-07T10:20:07;21.10;99.90
18103;DHT22;9178;51.120;6.192;2023-05-07T10:22:38;21.10;99.90
18103;DHT22;9178;51.120;6.192;2023-05-07T10:25:09;21.20;99.90
18103;DHT22;9178;51.120;6.192;2023-05-07T10:27:52;21.30;99.90
18103;DHT22;9178;51.120;6.192;2023-05-07T10:30:29;21.30;99.90
18103;DHT22;9178;51.120;6.192;2023-05-07T10:33:01;21.20;99.90
18103;DHT22;9178;51.120;6.192;2023-05-07T10:35:40;21.40;99.90
18103;DHT22;9178;51.120;6.192;2023-05-07T10:38:08;21.40;99.90
18103;DHT22;9178;51.120;6.192;2023-05-07T10:40:36;21.40;99.90
18103;DHT22;9178;51.120;6.192;2023-05-07T10:43:05;21.40;99.90
18103;DHT22;9178;51.120;6.192;2023-05-07T10:45:32;21.40;99.90
18103;DHT22;9178;51.120;6.192;2023-05-07T10:48:10;21.50;99.90
18103;DHT22;9178;51.120;6.192;2023-05-07T10:50:44;21.40;99.90
18103;DHT22;9178;51.120;6.192;2023-05-07T10:53:25;21.40;99.90
18103;DHT22;9178;51.120;6.192;2023-05-07T10:56:25;21.70;99.90
18103;DHT22;9178;51.120;6.192;2023-05-07T10:59:32;21.90;99.90
18103;DHT22;9178;51.120;6.192;2023-05-07T11:02:01;22.20;99.90
18103;DHT22;9178;51.120;6.192;2023-05-07T11:04:32;22.40;99.90
18103;DHT22;9178;51.120;6.192;2023-05-07T11:07:29;22.50;99.90
18103;DHT22;9178;51.120;6.192;2023-05-07T11:12:50;22.60;99.90
18103;DHT22;9178;51.120;6.192;2023-05-07T11:15:50;22.50;99.90
18103;DHT22;9178;51.120;6.192;2023-05-07T11:18:24;22.60;99.90
18103;DHT22;9178;51.120;6.192;2023-05-07T11:20:53;22.70;99.90
18103;DHT22;9178;51.120;6.192;2023-05-07T11:26:50;22.40;99.90
18103;DHT22;9178;51.120;6.192;2023-05-07T11:29:18;22.40;99.90
18103;DHT22;9178;51.120;6.192;2023-05-07T11:31:50;22.60;99.90
18103;DHT22;9178;51.120;6.192;2023-05-07T11:34:21;22.90;99.90
18103;DHT22;9178;51.120;6.192;2023-05-07T11:36:48;23.00;99.90
18103;DHT22;9178;51.120;6.192;2023-05-07T11:39:30;23.00;99.90
18103;DHT22;9178;51.120;6.192;2023-05-07T11:41:59;23.10;99.90
18103;DHT22;9178;51.120;6.192;2023-05-07T11:44:42;23.20;99.90
18103;DHT22;9178;51.120;6.192;2023-05-07T11:47:11;23.20;99.90
18103;DHT22;9178;51.120;6.192;2023-05-07T11:49:47;23.20;99.90
18103;DHT22;9178;51.120;6.192;2023-05-07T11:52:14;23.00;99.90
18103;DHT22;9178;51.120;6.192;2023-05-07T11:54:44;22.90;99.90
18103;DHT22;9178;51.120;6.192;2023-05-07T11:57:15;23.00;99.90
18103;DHT22;9178;51.120;6.192;2023-05-07T11:59:42;22.80;99.90
18103;DHT22;9178;51.120;6.192;2023-05-07T12:02:13;22.70;99.90
18103;DHT22;9178;51.120;6.192;2023-05-07T12:04:43;22.70;99.90
18103;DHT22;9178;51.120;6.192;2023-05-07T12:07:13;22.80;99.90
18103;DHT22;9178;51.120;6.192;2023-05-07T12:09:41;22.90;99.90
18103;DHT22;9178;51.120;6.192;2023-05-07T12:12:08;23.10;99.90
18103;DHT22;9178;51.120;6.192;2023-05-07T12:14:39;23.20;99.90
18103;DHT22;9178;51.120;6.192;2023-05-07T12:17:07;23.20;99.90
18103;DHT22;9178;51.120;6.192;2023-05-07T12:19:40;23.30;99.90
18103;DHT22;9178;51.120;6.192;2023-05-07T12:22:10;23.30;99.90
18103;DHT22;9178;51.120;6.192;2023-05-07T12:24:44;23.40;99.90
18103;DHT22;9178;51.120;6.192;2023-05-07T12:27:11;23.40;99.90
18103;DHT22;9178;51.120;6.192;2023-05-07T12:29:39;23.40;99.90
18103;DHT22;9178;51.120;6.192;2023-05-07T12:32:34;23.40;99.90
18103;DHT22;9178;51.120;6.192;2023-05-07T12:35:08;23.40;99.90
18103;DHT22;9178;51.120;6.192;2023-05-07T12:37:36;23.30;99.90
18103;DHT22;9178;51.120;6.192;2023-05-07T12:40:04;23.20;99.90
18103;DHT22;9178;51.120;6.192;2023-05-07T12:42:40;23.10;99.90
18103;DHT22;9178;51.120;6.192;2023-05-07T12:45:09;23.00;99.90
18103;DHT22;9178;51.120;6.192;2023-05-07T12:47:36;22.90;99.90
18103;DHT22;9178;51.120;6.192;2023-05-07T12:50:07;22.90;99.90
18103;DHT22;9178;51.120;6.192;2023-05-07T12:52:34;22.80;99.90
18103;DHT22;9178;51.120;6.192;2023-05-07T12:55:04;22.70;99.90
18103;DHT22;9178;51.120;6.192;2023-05-07T12:57:37;22.60;99.90
18103;DHT22;9178;51.120;6.192;2023-05-07T13:00:07;22.50;99.90
18103;DHT22;9178;51.120;6.192;2023-05-07T13:02:38;22.50;99.90
18103;DHT22;9178;51.120;6.192;2023-05-07T13:05:07;22.40;99.90
18103;DHT22;9178;51.120;6.192;2023-05-07T13:07:39;22.40;99.90
18103;DHT22;9178;51.120;6.192;2023-05-07T13:10:08;22.40;99.90
18103;DHT22;9178;51.120;6.192;2023-05-07T13:12:51;22.30;99.90
18103;DHT22;9178;51.120;6.192;2023-05-07T13:15:21;22.20;99.90
18103;DHT22;9178;51.120;6.192;2023-05-07T13:17:48;22.10;99.90
18103;DHT22;9178;51.120;6.192;2023-05-07T13:20:18;22.00;99.90
18103;DHT22;9178;51.120;6.192;2023-05-07T13:22:45;22.00;99.90
18103;DHT22;9178;51.120;6.192;2023-05-07T13:25:19;22.00;99.90
18103;DHT22;9178;51.120;6.192;2023-05-07T13:27:49;21.90;99.90
18103;DHT22;9178;51.120;6.192;2023-05-07T13:30:15;21.70;99.90
18103;DHT22;9178;51.120;6.192;2023-05-07T13:32:42;21.50;99.90
18103;DHT22;9178;51.120;6.192;2023-05-07T13:35:11;21.20;99.90
18103;DHT22;9178;51.120;6.192;2023-05-07T13:37:39;21.00;99.90
18103;DHT22;9178;51.120;6.192;2023-05-07T13:40:07;20.80;99.90
18103;DHT22;9178;51.120;6.192;2023-05-07T13:42:35;20.50;99.90
18103;DHT22;9178;51.120;6.192;2023-05-07T13:45:02;20.40;99.90
18103;DHT22;9178;51.120;6.192;2023-05-07T13:47:36;20.30;99.90
18103;DHT22;9178;51.120;6.192;2023-05-07T13:50:04;20.20;99.90
18103;DHT22;9178;51.120;6.192;2023-05-07T13:52:31;20.10;99.90
18103;DHT22;9178;51.120;6.192;2023-05-07T13:55:02;19.90;99.90
18103;DHT22;9178;51.120;6.192;2023-05-07T13:57:29;19.90;99.90
18103;DHT22;9178;51.120;6.192;2023-05-07T13:59:56;19.80;99.90
18103;DHT22;9178;51.120;6.192;2023-05-07T14:02:24;19.70;99.90
18103;DHT22;9178;51.120;6.192;2023-05-07T14:04:51;19.50;99.90
18103;DHT22;9178;51.120;6.192;2023-05-07T14:07:19;19.50;99.90
18103;DHT22;9178;51.120;6.192;2023-05-07T14:09:49;19.40;99.90
18103;DHT22;9178;51.120;6.192;2023-05-07T14:12:25;19.30;99.90
18103;DHT22;9178;51.120;6.192;2023-05-07T14:14:52;19.20;99.90
18103;DHT22;9178;51.120;6.192;2023-05-07T14:17:19;19.20;99.90
18103;DHT22;9178;51.120;6.192;2023-05-07T14:19:54;19.20;99.90
18103;DHT22;9178;51.120;6.192;2023-05-07T14:22:21;19.20;99.90
18103;DHT22;9178;51.120;6.192;2023-05-07T14:24:49;19.10;99.90
18103;DHT22;9178;51.120;6.192;2023-05-07T14:27:16;19.10;99.90
18103;DHT22;9178;51.120;6.192;2023-05-07T14:29:53;19.10;99.90
18103;DHT22;9178;51.120;6.192;2023-05-07T14:32:21;19.00;99.90
18103;DHT22;9178;51.120;6.192;2023-05-07T14:34:49;19.00;99.90
18103;DHT22;9178;51.120;6.192;2023-05-07T14:37:16;19.00;99.90
18103;DHT22;9178;51.120;6.192;2023-05-07T14:39:45;19.00;99.90
18103;DHT22;9178;51.120;6.192;2023-05-07T14:42:12;19.10;99.90
18103;DHT22;9178;51.120;6.192;2023-05-07T14:44:39;19.20;99.90
18103;DHT22;9178;51.120;6.192;2023-05-07T14:47:08;19.20;99.90
18103;DHT22;9178;51.120;6.192;2023-05-07T14:49:35;19.30;99.90
18103;DHT22;9178;51.120;6.192;2023-05-07T14:52:02;19.40;99.90
18103;DHT22;9178;51.120;6.192;2023-05-07T14:54:33;19.60;99.90
18103;DHT22;9178;51.120;6.192;2023-05-07T14:57:01;19.80;99.90
18103;DHT22;9178;51.120;6.192;2023-05-07T14:59:28;19.80;99.90
18103;DHT22;9178;51.120;6.192;2023-05-07T15:01:55;19.90;99.90
18103;DHT22;9178;51.120;6.192;2023-05-07T15:04:24;20.10;99.90
18103;DHT22;9178;51.120;6.192;2023-05-07T15:06:53;20.20;99.90
18103;DHT22;9178;51.120;6.192;2023-05-07T15:09:21;20.30;99.90
18103;DHT22;9178;51.120;6.192;2023-05-07T15:11:49;20.40;99.90
18103;DHT22;9178;51.120;6.192;2023-05-07T15:14:21;20.50;99.90
18103;DHT22;9178;51.120;6.192;2023-05-07T15:16:48;20.50;99.90
18103;DHT22;9178;51.120;6.192;2023-05-07T15:19:23;20.50;99.90
18103;DHT22;9178;51.120;6.192;2023-05-07T15:21:58;20.50;99.90
18103;DHT22;9178;51.120;6.192;2023-05-07T15:24:31;20.50;99.90
18103;DHT22;9178;51.120;6.192;2023-05-07T15:26:58;20.50;99.90
18103;DHT22;9178;51.120;6.192;2023-05-07T15:29:26;20.50;99.90
18103;DHT22;9178;51.120;6.192;2023-05-07T15:31:53;20.50;99.90
18103;DHT22;9178;51.120;6.192;2023-05-07T15:34:22;20.40;99.90
18103;DHT22;9178;51.120;6.192;2023-05-07T15:36:51;20.50;99.90
18103;DHT22;9178;51.120;6.192;2023-05-07T15:39:26;20.60;99.90
18103;DHT22;9178;51.120;6.192;2023-05-07T15:41:53;20.60;99.90
18103;DHT22;9178;51.120;6.192;2023-05-07T15:44:20;20.70;99.90
18103;DHT22;9178;51.120;6.192;2023-05-07T15:46:52;20.80;99.90
18103;DHT22;9178;51.120;6.192;2023-05-07T15:49:25;20.80;99.90
18103;DHT22;9178;51.120;6.192;2023-05-07T15:51:54;20.70;99.90
18103;DHT22;9178;51.120;6.192;2023-05-07T15:54:22;20.60;99.90
18103;DHT22;9178;51.120;6.192;2023-05-07T15:56:49;20.50;99.90
18103;DHT22;9178;51.120;6.192;2023-05-07T15:59:16;20.40;99.90
18103;DHT22;9178;51.120;6.192;2023-05-07T16:01:43;20.30;99.90